sensor_id;sensor_type;location;lat;lon;timestamp;temperature;humidity
54178;DHT22;40085;53.004;6.770;2023-05-14T00:01:52;12.20;91.20
54178;DHT22;40085;53.004;6.770;2023-05-14T00:04:18;13.00;92.10
54178;DHT22;40085;53.004;6.770;2023-05-14T00:06:46;12.10;90.50
54178;DHT22;40085;53.004;6.770;2023-05-14T00:09:12;12.10;90.80
54178;DHT22;40085;53.004;6.770;2023-05-14T00:11:37;12.10;91.60
54178;DHT22;40085;53.004;6.770;2023-05-14T00:14:03;12.10;91.30
54178;DHT22;40085;53.004;6.770;2023-05-14T00:16:29;12.10;92.30
54178;DHT22;40085;53.004;6.770;2023-05-14T00:18:54;12.10;91.60
54178;DHT22;40085;53.004;6.770;2023-05-14T00:21:20;12.10;91.40
54178;DHT22;40085;53.004;6.770;2023-05-14T00:23:45;12.00;92.80
54178;DHT22;40085;53.004;6.770;2023-05-14T00:26:11;12.00;94.70
54178;DHT22;40085;53.004;6.770;2023-05-14T00:28:36;12.00;93.30
54178;DHT22;40085;53.004;6.770;2023-05-14T00:31:02;11.90;94.00
54178;DHT22;40085;53.004;6.770;2023-05-14T00:33:28;12.00;93.80
54178;DHT22;40085;53.004;6.770;2023-05-14T00:35:53;12.00;94.10
54178;DHT22;40085;53.004;6.770;2023-05-14T00:38:19;11.90;94.90
54178;DHT22;40085;53.004;6.770;2023-05-14T00:40:45;12.10;95.70
54178;DHT22;40085;53.004;6.770;2023-05-14T00:43:17;11.90;95.40
54178;DHT22;40085;53.004;6.770;2023-05-14T00:45:43;11.90;95.80
54178;DHT22;40085;53.004;6.770;2023-05-14T00:48:09;11.90;95.20
54178;DHT22;40085;53.004;6.770;2023-05-14T00:50:35;11.90;94.90
54178;DHT22;40085;53.004;6.770;2023-05-14T00:53:01;11.90;95.10
54178;DHT22;40085;53.004;6.770;2023-05-14T00:55:29;11.70;95.70
54178;DHT22;40085;53.004;6.770;2023-05-14T00:57:55;11.80;95.70
54178;DHT22;40085;53.004;6.770;2023-05-14T01:00:22;11.80;95.80
54178;DHT22;40085;53.004;6.770;2023-05-14T01:02:47;11.80;95.90
54178;DHT22;40085;53.004;6.770;2023-05-14T01:05:13;13.40;96.70
54178;DHT22;40085;53.004;6.770;2023-05-14T01:08:06;11.70;97.50
54178;DHT22;40085;53.004;6.770;2023-05-14T01:10:43;11.70;96.90
54178;DHT22;40085;53.004;6.770;2023-05-14T01:13:45;11.50;97.60
54178;DHT22;40085;53.004;6.770;2023-05-14T01:16:03;11.70;98.30
54178;DHT22;40085;53.004;6.770;2023-05-14T01:18:30;11.60;98.40
54178;DHT22;40085;53.004;6.770;2023-05-14T01:20:56;11.60;98.10
54178;DHT22;40085;53.004;6.770;2023-05-14T01:23:22;12.20;99.40
54178;DHT22;40085;53.004;6.770;2023-05-14T01:25:48;11.60;99.40
54178;DHT22;40085;53.004;6.770;2023-05-14T01:28:19;11.50;99.50
54178;DHT22;40085;53.004;6.770;2023-05-14T01:30:57;11.50;99.90
54178;DHT22;40085;53.004;6.770;2023-05-14T01:33:26;12.00;99.90
54178;DHT22;40085;53.004;6.770;2023-05-14T01:35:54;11.50;99.90
54178;DHT22;40085;53.004;6.770;2023-05-14T01:38:20;11.40;99.90
54178;DHT22;40085;53.004;6.770;2023-05-14T01:40:48;11.40;99.90
54178;DHT22;40085;53.004;6.770;2023-05-14T01:43:15;11.40;99.90
54178;DHT22;40085;53.004;6.770;2023-05-14T01:45:41;11.40;99.90
54178;DHT22;40085;53.004;6.770;2023-05-14T01:48:08;11.80;99.90
54178;DHT22;40085;53.004;6.770;2023-05-14T01:50:33;11.40;99.90
54178;DHT22;40085;53.004;6.770;2023-05-14T01:52:59;11.50;99.90
54178;DHT22;40085;53.004;6.770;2023-05-14T01:55:24;12.30;99.90
54178;DHT22;40085;53.004;6.770;2023-05-14T01:57:51;11.80;99.90
54178;DHT22;40085;53.004;6.770;2023-05-14T02:00:17;11.30;99.90
54178;DHT22;40085;53.004;6.770;2023-05-14T02:02:43;11.30;99.90
54178;DHT22;40085;53.004;6.770;2023-05-14T02:05:10;11.30;99.90
54178;DHT22;40085;53.004;6.770;2023-05-14T02:07:35;11.30;99.90
54178;DHT22;40085;53.004;6.770;2023-05-14T02:10:01;12.60;99.90
54178;DHT22;40085;53.004;6.770;2023-05-14T02:12:27;11.40;99.90
54178;DHT22;40085;53.004;6.770;2023-05-14T02:14:52;11.40;99.90
54178;DHT22;40085;53.004;6.770;2023-05-14T02:17:19;12.20;99.90
54178;DHT22;40085;53.004;6.770;2023-05-14T02:19:44;11.30;99.90
54178;DHT22;40085;53.004;6.770;2023-05-14T02:22:11;11.30;99.90
54178;DHT22;40085;53.004;6.770;2023-05-14T02:24:36;11.30;99.90
54178;DHT22;40085;53.004;6.770;2023-05-14T02:27:02;11.20;99.90
54178;DHT22;40085;53.004;6.770;2023-05-14T02:29:28;11.30;99.90
54178;DHT22;40085;53.004;6.770;2023-05-14T02:31:54;11.30;99.90
54178;DHT22;40085;53.004;6.770;2023-05-14T02:34:20;11.30;99.90
54178;DHT22;40085;53.004;6.770;2023-05-14T02:36:45;11.20;99.90
54178;DHT22;40085;53.004;6.770;2023-05-14T02:39:11;11.20;99.90
54178;DHT22;40085;53.004;6.770;2023-05-14T02:41:36;11.20;99.90
54178;DHT22;40085;53.004;6.770;2023-05-14T02:44:02;11.10;99.90
54178;DHT22;40085;53.004;6.770;2023-05-14T02:46:29;11.10;99.90
54178;DHT22;40085;53.004;6.770;2023-05-14T02:48:54;11.10;99.90
54178;DHT22;40085;53.004;6.770;2023-05-14T02:51:20;11.00;99.90
54178;DHT22;40085;53.004;6.770;2023-05-14T02:53:46;11.00;99.90
54178;DHT22;40085;53.004;6.770;2023-05-14T02:56:11;11.00;99.90
54178;DHT22;40085;53.004;6.770;2023-05-14T02:58:37;10.90;99.90
54178;DHT22;40085;53.004;6.770;2023-05-14T03:01:02;11.00;99.90
54178;DHT22;40085;53.004;6.770;2023-05-14T03:03:29;10.90;99.90
54178;DHT22;40085;53.004;6.770;2023-05-14T03:05:55;11.30;99.90
54178;DHT22;40085;53.004;6.770;2023-05-14T03:08:20;11.00;99.90
54178;DHT22;40085;53.004;6.770;2023-05-14T03:10:46;11.50;99.90
54178;DHT22;40085;53.004;6.770;2023-05-14T03:13:12;12.00;99.90
54178;DHT22;40085;53.004;6.770;2023-05-14T03:15:39;11.00;99.90
54178;DHT22;40085;53.004;6.770;2023-05-14T03:18:05;11.00;99.90
54178;DHT22;40085;53.004;6.770;2023-05-14T03:20:31;11.00;99.90
54178;DHT22;40085;53.004;6.770;2023-05-14T03:22:56;11.00;99.90
54178;DHT22;40085;53.004;6.770;2023-05-14T03:25:22;11.00;99.90
54178;DHT22;40085;53.004;6.770;2023-05-14T03:27:47;11.00;99.90
54178;DHT22;40085;53.004;6.770;2023-05-14T03:30:13;11.00;99.90
54178;DHT22;40085;53.004;6.770;2023-05-14T03:32:38;11.00;99.90
54178;DHT22;40085;53.004;6.770;2023-05-14T03:35:05;10.90;99.90
54178;DHT22;40085;53.004;6.770;2023-05-14T03:37:31;10.90;99.90
54178;DHT22;40085;53.004;6.770;2023-05-14T03:39:56;10.90;99.90
54178;DHT22;40085;53.004;6.770;2023-05-14T03:42:22;10.90;99.90
54178;DHT22;40085;53.004;6.770;2023-05-14T03:44:47;10.90;99.90
54178;DHT22;40085;53.004;6.770;2023-05-14T03:47:13;10.90;99.90
54178;DHT22;40085;53.004;6.770;2023-05-14T03:49:38;12.20;99.90
54178;DHT22;40085;53.004;6.770;2023-05-14T03:52:04;10.90;99.90
54178;DHT22;40085;53.004;6.770;2023-05-14T03:54:30;10.90;99.90
54178;DHT22;40085;53.004;6.770;2023-05-14T03:56:55;11.60;99.90
54178;DHT22;40085;53.004;6.770;2023-05-14T03:59:21;10.90;99.90
54178;DHT22;40085;53.004;6.770;2023-05-14T04:01:47;10.90;99.90
54178;DHT22;40085;53.004;6.770;2023-05-14T04:04:12;10.90;99.90
54178;DHT22;40085;53.004;6.770;2023-05-14T04:06:38;12.10;99.90
54178;DHT22;40085;53.004;6.770;2023-05-14T04:09:03;12.00;99.90
54178;DHT22;40085;53.004;6.770;2023-05-14T04:11:29;10.90;99.90
54178;DHT22;40085;53.004;6.770;2023-05-14T04:13:55;10.90;99.90
54178;DHT22;40085;53.004;6.770;2023-05-14T04:16:20;10.90;99.90
54178;DHT22;40085;53.004;6.770;2023-05-14T04:18:46;11.10;99.90
54178;DHT22;40085;53.004;6.770;2023-05-14T04:21:11;11.20;99.90
54178;DHT22;40085;53.004;6.770;2023-05-14T04:23:37;10.90;99.90
54178;DHT22;40085;53.004;6.770;2023-05-14T04:26:03;10.90;99.90
54178;DHT22;40085;53.004;6.770;2023-05-14T04:28:29;11.00;99.90
54178;DHT22;40085;53.004;6.770;2023-05-14T04:30:55;10.90;99.90
54178;DHT22;40085;53.004;6.770;2023-05-14T04:33:21;11.00;99.90
54178;DHT22;40085;53.004;6.770;2023-05-14T04:35:46;11.00;99.90
54178;DHT22;40085;53.004;6.770;2023-05-14T04:38:12;11.00;99.90
54178;DHT22;40085;53.004;6.770;2023-05-14T04:40:39;11.00;99.90
54178;DHT22;40085;53.004;6.770;2023-05-14T04:43:06;11.00;99.90
54178;DHT22;40085;53.004;6.770;2023-05-14T04:45:32;11.10;99.90
54178;DHT22;40085;53.004;6.770;2023-05-14T04:47:58;11.10;99.90
54178;DHT22;40085;53.004;6.770;2023-05-14T04:50:24;11.20;99.90
54178;DHT22;40085;53.004;6.770;2023-05-14T04:52:49;11.20;99.90
54178;DHT22;40085;53.004;6.770;2023-05-14T04:55:15;12.20;99.90
54178;DHT22;40085;53.004;6.770;2023-05-14T04:57:41;11.20;99.90
54178;DHT22;40085;53.004;6.770;2023-05-14T05:00:07;10.70;99.90
54178;DHT22;40085;53.004;6.770;2023-05-14T05:02:34;11.30;99.90
54178;DHT22;40085;53.004;6.770;2023-05-14T05:05:00;11.30;99.90
54178;DHT22;40085;53.004;6.770;2023-05-14T05:07:25;11.40;99.90
54178;DHT22;40085;53.004;6.770;2023-05-14T05:09:51;11.40;99.90
54178;DHT22;40085;53.004;6.770;2023-05-14T05:12:17;11.40;99.90
54178;DHT22;40085;53.004;6.770;2023-05-14T05:14:42;11.80;99.90
54178;DHT22;40085;53.004;6.770;2023-05-14T05:17:08;12.00;99.90
54178;DHT22;40085;53.004;6.770;2023-05-14T05:19:33;11.60;99.90
54178;DHT22;40085;53.004;6.770;2023-05-14T05:21:59;11.80;99.90
54178;DHT22;40085;53.004;6.770;2023-05-14T05:24:25;11.90;99.90
54178;DHT22;40085;53.004;6.770;2023-05-14T05:26:50;11.90;99.90
54178;DHT22;40085;53.004;6.770;2023-05-14T05:29:19;12.00;99.90
54178;DHT22;40085;53.004;6.770;2023-05-14T05:31:44;12.20;99.90
54178;DHT22;40085;53.004;6.770;2023-05-14T05:34:10;12.20;99.90
54178;DHT22;40085;53.004;6.770;2023-05-14T05:36:36;12.30;99.90
54178;DHT22;40085;53.004;6.770;2023-05-14T05:39:01;12.30;99.90
54178;DHT22;40085;53.004;6.770;2023-05-14T05:41:27;12.10;99.90
54178;DHT22;40085;53.004;6.770;2023-05-14T05:43:54;12.40;99.90
54178;DHT22;40085;53.004;6.770;2023-05-14T05:46:20;12.30;99.90
54178;DHT22;40085;53.004;6.770;2023-05-14T05:48:46;13.00;99.90
54178;DHT22;40085;53.004;6.770;2023-05-14T05:51:11;13.10;99.90
54178;DHT22;40085;53.004;6.770;2023-05-14T05:53:37;13.40;99.90
54178;DHT22;40085;53.004;6.770;2023-05-14T05:58:28;12.90;99.90
54178;DHT22;40085;53.004;6.770;2023-05-14T06:00:54;13.10;99.90
54178;DHT22;40085;53.004;6.770;2023-05-14T06:03:21;14.50;99.90
54178;DHT22;40085;53.004;6.770;2023-05-14T06:05:47;13.20;99.90
54178;DHT22;40085;53.004;6.770;2023-05-14T06:08:13;13.30;99.90
54178;DHT22;40085;53.004;6.770;2023-05-14T06:10:38;13.40;99.90
54178;DHT22;40085;53.004;6.770;2023-05-14T06:13:04;13.40;99.90
54178;DHT22;40085;53.004;6.770;2023-05-14T06:15:31;13.50;99.90
54178;DHT22;40085;53.004;6.770;2023-05-14T06:17:56;14.40;99.90
54178;DHT22;40085;53.004;6.770;2023-05-14T06:20:22;13.70;99.90
54178;DHT22;40085;53.004;6.770;2023-05-14T06:22:48;13.70;99.90
54178;DHT22;40085;53.004;6.770;2023-05-14T06:25:13;13.80;99.90
54178;DHT22;40085;53.004;6.770;2023-05-14T06:27:39;13.80;99.90
54178;DHT22;40085;53.004;6.770;2023-05-14T06:30:05;13.90;98.70
54178;DHT22;40085;53.004;6.770;2023-05-14T06:32:31;14.00;97.10
54178;DHT22;40085;53.004;6.770;2023-05-14T06:34:57;14.50;95.30
54178;DHT22;40085;53.004;6.770;2023-05-14T06:37:22;14.70;94.70
54178;DHT22;40085;53.004;6.770;2023-05-14T06:39:48;14.30;92.60
54178;DHT22;40085;53.004;6.770;2023-05-14T06:42:16;14.40;87.10
54178;DHT22;40085;53.004;6.770;2023-05-14T06:44:42;14.50;78.70
54178;DHT22;40085;53.004;6.770;2023-05-14T06:47:08;14.60;82.20
54178;DHT22;40085;53.004;6.770;2023-05-14T06:49:34;14.80;75.10
54178;DHT22;40085;53.004;6.770;2023-05-14T06:52:00;15.00;76.20
54178;DHT22;40085;53.004;6.770;2023-05-14T06:54:26;15.10;52.80
54178;DHT22;40085;53.004;6.770;2023-05-14T06:56:52;15.20;23.00
54178;DHT22;40085;53.004;6.770;2023-05-14T06:59:18;15.20;1.00
54178;DHT22;40085;53.004;6.770;2023-05-14T07:01:43;15.30;1.00
54178;DHT22;40085;53.004;6.770;2023-05-14T07:04:09;15.40;1.00
54178;DHT22;40085;53.004;6.770;2023-05-14T07:06:35;15.60;1.00
54178;DHT22;40085;53.004;6.770;2023-05-14T07:09:01;15.70;1.00
54178;DHT22;40085;53.004;6.770;2023-05-14T07:11:26;16.50;1.00
54178;DHT22;40085;53.004;6.770;2023-05-14T07:13:52;15.80;1.00
54178;DHT22;40085;53.004;6.770;2023-05-14T07:16:18;15.90;1.00
54178;DHT22;40085;53.004;6.770;2023-05-14T07:18:44;15.90;99.90
54178;DHT22;40085;53.004;6.770;2023-05-14T07:21:10;15.90;99.90
54178;DHT22;40085;53.004;6.770;2023-05-14T07:23:35;15.90;99.90
54178;DHT22;40085;53.004;6.770;2023-05-14T07:26:03;16.00;99.90
54178;DHT22;40085;53.004;6.770;2023-05-14T07:28:29;16.40;99.90
54178;DHT22;40085;53.004;6.770;2023-05-14T07:30:55;16.00;99.90
54178;DHT22;40085;53.004;6.770;2023-05-14T07:33:21;16.10;99.90
54178;DHT22;40085;53.004;6.770;2023-05-14T07:35:46;16.20;99.90
54178;DHT22;40085;53.004;6.770;2023-05-14T07:38:12;16.50;99.90
54178;DHT22;40085;53.004;6.770;2023-05-14T07:40:38;16.30;99.90
54178;DHT22;40085;53.004;6.770;2023-05-14T07:43:04;16.40;1.00
54178;DHT22;40085;53.004;6.770;2023-05-14T07:45:29;16.50;1.00
54178;DHT22;40085;53.004;6.770;2023-05-14T07:47:55;16.60;10.10
54178;DHT22;40085;53.004;6.770;2023-05-14T07:50:21;16.70;99.90
54178;DHT22;40085;53.004;6.770;2023-05-14T07:52:47;16.70;99.90
54178;DHT22;40085;53.004;6.770;2023-05-14T07:55:13;16.80;99.90
54178;DHT22;40085;53.004;6.770;2023-05-14T07:57:39;16.90;1.00
54178;DHT22;40085;53.004;6.770;2023-05-14T08:00:05;17.10;1.00
54178;DHT22;40085;53.004;6.770;2023-05-14T08:02:34;17.10;99.90
54178;DHT22;40085;53.004;6.770;2023-05-14T08:04:59;17.10;99.90
54178;DHT22;40085;53.004;6.770;2023-05-14T08:07:25;17.30;99.90
54178;DHT22;40085;53.004;6.770;2023-05-14T08:09:53;17.90;95.10
54178;DHT22;40085;53.004;6.770;2023-05-14T08:12:19;17.30;99.90
54178;DHT22;40085;53.004;6.770;2023-05-14T08:14:45;17.30;99.90
54178;DHT22;40085;53.004;6.770;2023-05-14T08:17:10;17.30;99.90
54178;DHT22;40085;53.004;6.770;2023-05-14T08:19:36;18.30;99.90
54178;DHT22;40085;53.004;6.770;2023-05-14T08:22:02;17.40;99.90
54178;DHT22;40085;53.004;6.770;2023-05-14T08:24:28;17.30;33.50
54178;DHT22;40085;53.004;6.770;2023-05-14T08:26:54;17.80;99.90
54178;DHT22;40085;53.004;6.770;2023-05-14T08:29:20;17.50;1.00
54178;DHT22;40085;53.004;6.770;2023-05-14T08:31:46;17.60;91.50
54178;DHT22;40085;53.004;6.770;2023-05-14T08:34:11;17.80;26.40
54178;DHT22;40085;53.004;6.770;2023-05-14T08:36:40;17.80;99.90
54178;DHT22;40085;53.004;6.770;2023-05-14T08:39:05;18.10;99.90
54178;DHT22;40085;53.004;6.770;2023-05-14T08:41:34;18.10;1.00
54178;DHT22;40085;53.004;6.770;2023-05-14T08:46:36;18.10;99.90
54178;DHT22;40085;53.004;6.770;2023-05-14T08:51:59;18.20;68.10
54178;DHT22;40085;53.004;6.770;2023-05-14T08:54:25;18.20;99.90
54178;DHT22;40085;53.004;6.770;2023-05-14T08:56:53;18.10;99.90
54178;DHT22;40085;53.004;6.770;2023-05-14T08:59:19;18.40;99.90
54178;DHT22;40085;53.004;6.770;2023-05-14T09:01:51;18.00;99.90
54178;DHT22;40085;53.004;6.770;2023-05-14T09:04:19;18.30;99.90
54178;DHT22;40085;53.004;6.770;2023-05-14T09:06:48;17.80;99.90
54178;DHT22;40085;53.004;6.770;2023-05-14T09:09:14;19.20;99.90
54178;DHT22;40085;53.004;6.770;2023-05-14T09:11:50;18.20;99.90
54178;DHT22;40085;53.004;6.770;2023-05-14T09:14:16;18.30;99.90
54178;DHT22;40085;53.004;6.770;2023-05-14T09:16:46;19.00;1.00
54178;DHT22;40085;53.004;6.770;2023-05-14T09:19:13;18.00;1.00
54178;DHT22;40085;53.004;6.770;2023-05-14T09:21:40;18.10;1.00
54178;DHT22;40085;53.004;6.770;2023-05-14T09:24:06;18.20;1.00
54178;DHT22;40085;53.004;6.770;2023-05-14T09:26:34;18.40;1.00
54178;DHT22;40085;53.004;6.770;2023-05-14T09:29:01;18.60;1.00
54178;DHT22;40085;53.004;6.770;2023-05-14T09:31:31;18.70;1.00
54178;DHT22;40085;53.004;6.770;2023-05-14T09:33:58;18.80;1.00
54178;DHT22;40085;53.004;6.770;2023-05-14T09:36:25;19.30;1.00
54178;DHT22;40085;53.004;6.770;2023-05-14T09:38:57;18.90;99.90
54178;DHT22;40085;53.004;6.770;2023-05-14T09:41:22;19.00;99.90
54178;DHT22;40085;53.004;6.770;2023-05-14T09:43:49;19.90;99.90
54178;DHT22;40085;53.004;6.770;2023-05-14T09:46:15;19.00;99.90
54178;DHT22;40085;53.004;6.770;2023-05-14T09:48:41;19.00;99.90
54178;DHT22;40085;53.004;6.770;2023-05-14T09:51:08;18.90;99.90
54178;DHT22;40085;53.004;6.770;2023-05-14T09:53:34;19.00;99.90
54178;DHT22;40085;53.004;6.770;2023-05-14T09:56:00;19.20;99.90
54178;DHT22;40085;53.004;6.770;2023-05-14T09:58:26;19.40;99.90
54178;DHT22;40085;53.004;6.770;2023-05-14T10:00:52;19.30;99.90
54178;DHT22;40085;53.004;6.770;2023-05-14T10:03:19;19.30;99.90
54178;DHT22;40085;53.004;6.770;2023-05-14T10:05:47;19.30;99.90
54178;DHT22;40085;53.004;6.770;2023-05-14T10:08:18;19.20;99.90
54178;DHT22;40085;53.004;6.770;2023-05-14T10:10:46;19.30;99.90
54178;DHT22;40085;53.004;6.770;2023-05-14T10:13:14;19.30;99.90
54178;DHT22;40085;53.004;6.770;2023-05-14T10:15:53;19.30;99.90
54178;DHT22;40085;53.004;6.770;2023-05-14T10:18:22;19.90;99.90
54178;DHT22;40085;53.004;6.770;2023-05-14T10:21:04;20.10;99.90
54178;DHT22;40085;53.004;6.770;2023-05-14T10:23:30;19.50;99.90
54178;DHT22;40085;53.004;6.770;2023-05-14T10:25:57;19.50;99.90
54178;DHT22;40085;53.004;6.770;2023-05-14T10:28:23;19.60;99.90
54178;DHT22;40085;53.004;6.770;2023-05-14T10:30:49;19.70;99.90
54178;DHT22;40085;53.004;6.770;2023-05-14T10:33:15;19.80;99.90
54178;DHT22;40085;53.004;6.770;2023-05-14T10:35:55;19.80;99.90
54178;DHT22;40085;53.004;6.770;2023-05-14T10:38:25;19.80;99.90
54178;DHT22;40085;53.004;6.770;2023-05-14T10:40:55;19.90;99.90
54178;DHT22;40085;53.004;6.770;2023-05-14T10:43:24;20.10;99.90
54178;DHT22;40085;53.004;6.770;2023-05-14T10:45:51;20.20;99.90
54178;DHT22;40085;53.004;6.770;2023-05-14T10:48:17;21.00;99.90
54178;DHT22;40085;53.004;6.770;2023-05-14T10:50:43;20.10;99.90
54178;DHT22;40085;53.004;6.770;2023-05-14T10:53:12;20.20;99.90
54178;DHT22;40085;53.004;6.770;2023-05-14T10:55:37;21.60;99.90
54178;DHT22;40085;53.004;6.770;2023-05-14T10:58:03;20.50;99.90
54178;DHT22;40085;53.004;6.770;2023-05-14T11:00:32;20.30;99.90
54178;DHT22;40085;53.004;6.770;2023-05-14T11:02:58;20.20;99.90
54178;DHT22;40085;53.004;6.770;2023-05-14T11:05:24;20.30;99.90
54178;DHT22;40085;53.004;6.770;2023-05-14T11:07:55;20.50;99.90
54178;DHT22;40085;53.004;6.770;2023-05-14T11:10:21;20.60;99.90
54178;DHT22;40085;53.004;6.770;2023-05-14T11:12:49;20.60;99.90
54178;DHT22;40085;53.004;6.770;2023-05-14T11:15:20;20.60;99.90
54178;DHT22;40085;53.004;6.770;2023-05-14T11:17:47;20.60;99.90
54178;DHT22;40085;53.004;6.770;2023-05-14T11:20:13;20.40;99.90
54178;DHT22;40085;53.004;6.770;2023-05-14T11:22:40;20.60;99.90
54178;DHT22;40085;53.004;6.770;2023-05-14T11:25:06;20.70;99.90
54178;DHT22;40085;53.004;6.770;2023-05-14T11:27:39;20.70;99.90
54178;DHT22;40085;53.004;6.770;2023-05-14T11:32:37;20.60;99.90
54178;DHT22;40085;53.004;6.770;2023-05-14T11:35:03;20.60;99.90
54178;DHT22;40085;53.004;6.770;2023-05-14T11:37:29;20.80;99.90
54178;DHT22;40085;53.004;6.770;2023-05-14T11:39:59;20.90;99.90
54178;DHT22;40085;53.004;6.770;2023-05-14T11:42:26;21.00;99.90
54178;DHT22;40085;53.004;6.770;2023-05-14T11:44:52;20.90;99.90
54178;DHT22;40085;53.004;6.770;2023-05-14T11:47:21;21.30;99.90
54178;DHT22;40085;53.004;6.770;2023-05-14T11:49:47;21.20;1.00
54178;DHT22;40085;53.004;6.770;2023-05-14T11:52:15;22.00;99.90
54178;DHT22;40085;53.004;6.770;2023-05-14T11:54:41;21.30;99.90
54178;DHT22;40085;53.004;6.770;2023-05-14T11:57:10;22.10;99.90
54178;DHT22;40085;53.004;6.770;2023-05-14T11:59:36;21.30;99.90
54178;DHT22;40085;53.004;6.770;2023-05-14T12:02:02;21.20;99.90
54178;DHT22;40085;53.004;6.770;2023-05-14T12:04:29;21.70;99.90
54178;DHT22;40085;53.004;6.770;2023-05-14T12:06:57;21.30;99.90
54178;DHT22;40085;53.004;6.770;2023-05-14T12:09:23;21.40;99.90
54178;DHT22;40085;53.004;6.770;2023-05-14T12:11:50;21.40;99.90
54178;DHT22;40085;53.004;6.770;2023-05-14T12:14:21;21.60;99.90
54178;DHT22;40085;53.004;6.770;2023-05-14T12:16:47;21.90;99.90
54178;DHT22;40085;53.004;6.770;2023-05-14T12:19:14;21.70;99.90
54178;DHT22;40085;53.004;6.770;2023-05-14T12:21:42;21.70;99.90
54178;DHT22;40085;53.004;6.770;2023-05-14T12:24:17;21.60;99.90
54178;DHT22;40085;53.004;6.770;2023-05-14T12:26:48;21.60;99.90
54178;DHT22;40085;53.004;6.770;2023-05-14T12:29:15;21.60;99.90
54178;DHT22;40085;53.004;6.770;2023-05-14T12:31:45;21.70;99.90
54178;DHT22;40085;53.004;6.770;2023-05-14T12:34:12;21.80;99.90
54178;DHT22;40085;53.004;6.770;2023-05-14T12:36:38;21.90;99.90
54178;DHT22;40085;53.004;6.770;2023-05-14T12:39:03;22.00;99.90
54178;DHT22;40085;53.004;6.770;2023-05-14T12:41:30;22.00;99.90
54178;DHT22;40085;53.004;6.770;2023-05-14T12:43:56;22.20;99.90
54178;DHT22;40085;53.004;6.770;2023-05-14T12:46:23;22.10;99.90
54178;DHT22;40085;53.004;6.770;2023-05-14T12:48:49;22.00;99.90
54178;DHT22;40085;53.004;6.770;2023-05-14T12:51:15;22.10;99.90
54178;DHT22;40085;53.004;6.770;2023-05-14T12:53:41;22.40;99.90
54178;DHT22;40085;53.004;6.770;2023-05-14T12:56:07;22.00;99.90
54178;DHT22;40085;53.004;6.770;2023-05-14T12:58:32;21.90;99.90
54178;DHT22;40085;53.004;6.770;2023-05-14T13:00:58;21.80;99.90
54178;DHT22;40085;53.004;6.770;2023-05-14T13:03:24;21.80;99.90
54178;DHT22;40085;53.004;6.770;2023-05-14T13:05:51;22.00;99.90
54178;DHT22;40085;53.004;6.770;2023-05-14T13:08:17;22.00;99.90
54178;DHT22;40085;53.004;6.770;2023-05-14T13:10:43;22.10;99.90
54178;DHT22;40085;53.004;6.770;2023-05-14T13:13:10;22.00;99.90
54178;DHT22;40085;53.004;6.770;2023-05-14T13:15:36;22.40;99.90
54178;DHT22;40085;53.004;6.770;2023-05-14T13:18:02;22.20;99.90
54178;DHT22;40085;53.004;6.770;2023-05-14T13:20:28;22.10;99.90
54178;DHT22;40085;53.004;6.770;2023-05-14T13:22:55;22.20;99.90
54178;DHT22;40085;53.004;6.770;2023-05-14T13:25:21;22.20;99.90
54178;DHT22;40085;53.004;6.770;2023-05-14T13:27:47;22.30;99.90
54178;DHT22;40085;53.004;6.770;2023-05-14T13:30:16;22.20;99.90
54178;DHT22;40085;53.004;6.770;2023-05-14T13:32:42;22.30;99.90
54178;DHT22;40085;53.004;6.770;2023-05-14T13:35:08;22.30;99.90
54178;DHT22;40085;53.004;6.770;2023-05-14T13:37:35;22.20;99.90
54178;DHT22;40085;53.004;6.770;2023-05-14T13:40:00;22.20;99.90
54178;DHT22;40085;53.004;6.770;2023-05-14T13:42:26;22.20;99.90
54178;DHT22;40085;53.004;6.770;2023-05-14T13:44:51;22.30;99.90
54178;DHT22;40085;53.004;6.770;2023-05-14T13:47:17;22.20;99.90
54178;DHT22;40085;53.004;6.770;2023-05-14T13:49:43;22.20;99.90
54178;DHT22;40085;53.004;6.770;2023-05-14T13:52:08;22.00;99.90
54178;DHT22;40085;53.004;6.770;2023-05-14T13:54:34;22.10;99.90
54178;DHT22;40085;53.004;6.770;2023-05-14T13:56:59;22.40;99.90
54178;DHT22;40085;53.004;6.770;2023-05-14T13:59:25;22.10;99.90
54178;DHT22;40085;53.004;6.770;2023-05-14T14:01:52;22.20;99.90
54178;DHT22;40085;53.004;6.770;2023-05-14T14:04:17;22.20;99.90
54178;DHT22;40085;53.004;6.770;2023-05-14T14:06:44;22.20;99.90
54178;DHT22;40085;53.004;6.770;2023-05-14T14:09:09;22.30;99.90
54178;DHT22;40085;53.004;6.770;2023-05-14T14:11:36;22.30;99.90
54178;DHT22;40085;53.004;6.770;2023-05-14T14:14:02;22.00;99.90
54178;DHT22;40085;53.004;6.770;2023-05-14T14:16:28;22.20;99.90
54178;DHT22;40085;53.004;6.770;2023-05-14T14:18:53;22.60;99.90
54178;DHT22;40085;53.004;6.770;2023-05-14T14:21:19;22.40;99.90
54178;DHT22;40085;53.004;6.770;2023-05-14T14:23:45;22.30;99.90
54178;DHT22;40085;53.004;6.770;2023-05-14T14:26:11;22.40;99.90
54178;DHT22;40085;53.004;6.770;2023-05-14T14:28:37;22.50;99.90
54178;DHT22;40085;53.004;6.770;2023-05-14T14:31:02;22.70;99.90
54178;DHT22;40085;53.004;6.770;2023-05-14T14:33:28;22.50;99.90
54178;DHT22;40085;53.004;6.770;2023-05-14T14:35:53;22.60;99.90
54178;DHT22;40085;53.004;6.770;2023-05-14T14:38:19;23.20;99.90
54178;DHT22;40085;53.004;6.770;2023-05-14T14:40:45;22.60;99.90
54178;DHT22;40085;53.004;6.770;2023-05-14T14:43:11;22.60;99.90
54178;DHT22;40085;53.004;6.770;2023-05-14T14:45:36;22.50;99.90
54178;DHT22;40085;53.004;6.770;2023-05-14T14:50:47;22.40;99.90
54178;DHT22;40085;53.004;6.770;2023-05-14T14:53:12;22.50;99.90
54178;DHT22;40085;53.004;6.770;2023-05-14T14:55:38;22.50;99.90
54178;DHT22;40085;53.004;6.770;2023-05-14T14:58:03;22.40;99.90
54178;DHT22;40085;53.004;6.770;2023-05-14T15:00:29;22.30;99.90
54178;DHT22;40085;53.004;6.770;2023-05-14T15:02:55;22.30;99.90
54178;DHT22;40085;53.004;6.770;2023-05-14T15:05:20;22.30;99.90
54178;DHT22;40085;53.004;6.770;2023-05-14T15:07:46;22.30;99.90
54178;DHT22;40085;53.004;6.770;2023-05-14T15:10:11;22.20;99.90
54178;DHT22;40085;53.004;6.770;2023-05-14T15:12:37;22.20;99.90
54178;DHT22;40085;53.004;6.770;2023-05-14T15:15:03;22.10;99.90
54178;DHT22;40085;53.004;6.770;2023-05-14T15:17:28;22.10;99.90
54178;DHT22;40085;53.004;6.770;2023-05-14T15:19:54;22.10;99.90
54178;DHT22;40085;53.004;6.770;2023-05-14T15:22:20;22.10;99.90
54178;DHT22;40085;53.004;6.770;2023-05-14T15:24:46;22.20;99.90
54178;DHT22;40085;53.004;6.770;2023-05-14T15:27:11;22.20;99.90
54178;DHT22;40085;53.004;6.770;2023-05-14T15:29:37;22.20;99.90
54178;DHT22;40085;53.004;6.770;2023-05-14T15:32:02;22.20;99.90
54178;DHT22;40085;53.004;6.770;2023-05-14T15:34:28;22.10;99.90
54178;DHT22;40085;53.004;6.770;2023-05-14T15:36:54;22.20;99.90
54178;DHT22;40085;53.004;6.770;2023-05-14T15:39:19;23.30;99.90
54178;DHT22;40085;53.004;6.770;2023-05-14T15:41:45;22.30;99.90